Flight Track Log - Related Links

Times and Time Zones

All times are in EDT time to prevent confusion due to time zone crossing. See the ELJ309 flight status page for this flight to view local times or setup timezone preferences in your user account.

Time Position Orientation Groundspeed Altitude Reporting Facility
EDT Latitude Longitude Course Direction KTS MPH feet Rate Location/Type
Sun 10:30:32 PM 41.3714 -81.6317 289° West 93 107 3,000  Level Cleveland Center
Sun 10:32:00 PM 41.2465 -81.5885 165° South  Level Estimated
Sun 10:39:00 PM 40.6503 -81.3845 165° South  Level Estimated
Sun 10:40:00 PM 40.5651 -81.3557 166° South  Level Estimated
Sun 10:41:00 PM 40.4799 -81.3269 166° South  Level Estimated
Sun 10:42:00 PM 40.3947 -81.2982 166° South  Level Estimated
Sun 10:43:00 PM 40.3095 -81.2696 166° South  Level Estimated
Sun 10:44:00 PM 40.2243 -81.2410 166° South  Level Estimated
Sun 10:45:00 PM 40.1390 -81.2125 166° South  Level Estimated
Sun 10:46:00 PM 40.0538 -81.1841 166° South  Level Estimated
Sun 10:47:00 PM 39.9685 -81.1558 166° South  Level Estimated
Sun 10:48:00 PM 39.8833 -81.1275 166° South  Level Estimated
Sun 10:49:00 PM 39.7980 -81.0994 166° South  Level Estimated
Sun 10:50:00 PM 39.7127 -81.0712 166° South  Level Estimated
Sun 10:51:00 PM 39.6275 -81.0432 166° South  Level Estimated
Sun 10:52:00 PM 39.5422 -81.0152 166° South  Level Estimated
Sun 10:53:00 PM 39.4569 -80.9873 166° South  Level Estimated
Sun 10:54:00 PM 39.3716 -80.9594 166° South  Level Estimated
Sun 10:55:00 PM 39.2863 -80.9316 166° South  Level Estimated
Sun 10:56:00 PM 39.2010 -80.9039 166° South  Level Estimated
Sun 10:57:00 PM 39.1157 -80.8763 166° South  Level Estimated
Sun 10:58:00 PM 39.0303 -80.8487 166° South  Level Estimated
Sun 10:59:00 PM 38.9450 -80.8212 166° South  Level Estimated
Sun 11:00:00 PM 38.8597 -80.7937 166° South  Level Estimated
Sun 11:01:00 PM 38.7743 -80.7664 166° South  Level Estimated
Sun 11:02:00 PM 38.6890 -80.7391 166° South  Level Estimated
Sun 11:03:00 PM 38.6036 -80.7118 166° South  Level Estimated
Sun 11:04:00 PM 38.5183 -80.6846 166° South  Level Estimated
Sun 11:05:00 PM 38.4329 -80.6575 166° South  Level Estimated
Sun 11:06:00 PM 38.3475 -80.6304 166° South  Level Estimated
Sun 11:07:00 PM 38.2621 -80.6035 166° South  Level Estimated
Sun 11:08:00 PM 38.1768 -80.5765 166° South  Level Estimated
Sun 11:09:00 PM 38.0914 -80.5497 166° South  Level Estimated
Sun 11:10:00 PM 38.0060 -80.5229 166° South  Level Estimated
Sun 11:11:00 PM 37.9206 -80.4961 166° South  Level Estimated
Sun 11:12:00 PM 37.8352 -80.4694 166° South  Level Estimated
Sun 11:13:00 PM 37.7497 -80.4428 166° South  Level Estimated
Sun 11:14:00 PM 37.6643 -80.4163 166° South  Level Estimated
Sun 11:15:00 PM 37.5789 -80.3898 166° South  Level Estimated
Sun 11:16:00 PM 37.4935 -80.3633 166° South  Level Estimated
Sun 11:17:00 PM 37.4080 -80.3370 166° South  Level Estimated
Sun 11:18:00 PM 37.3226 -80.3107 166° South  Level Estimated
Sun 11:19:00 PM 37.2371 -80.2844 166° South  Level Estimated
Sun 11:20:00 PM 37.1517 -80.2582 166° South  Level Estimated
Sun 11:21:00 PM 37.0662 -80.2321 166° South  Level Estimated
Sun 11:22:00 PM 36.9807 -80.2060 166° South  Level Estimated
Sun 11:23:00 PM 36.8953 -80.1800 166° South  Level Estimated
Sun 11:24:00 PM 36.8098 -80.1540 166° South  Level Estimated
Sun 11:25:00 PM 36.7243 -80.1281 166° South  Level Estimated
Sun 11:26:00 PM 36.6388 -80.1023 166° South  Level Estimated
Sun 11:27:00 PM 36.5533 -80.0765 166° South  Level Estimated
Sun 11:28:00 PM 36.4678 -80.0508 166° South  Level Estimated
Sun 11:29:00 PM 36.3823 -80.0251 166° South  Level Estimated
Sun 11:30:00 PM 36.2968 -79.9995 166° South  Level Estimated
Sun 11:31:00 PM 36.2113 -79.9739 166° South  Level Estimated
Sun 11:32:00 PM 36.1257 -79.9484 166° South  Level Estimated
Sun 11:33:00 PM 36.1013 -79.9411 166° South  Level Estimated
Sun 11:34:00 PM 36.1013 -79.9411 214° Southwest  Level Estimated
Sun 11:35:00 PM 36.1013 -79.9411 214° Southwest  Level Estimated
Sun 11:36:00 PM 36.1013 -79.9411 214° Southwest  Level Estimated
Sun 11:37:00 PM 36.1013 -79.9411 214° Southwest  Level Estimated
Sun 11:38:00 PM 36.1013 -79.9411 214° Southwest  Level Estimated
Sun 11:39:00 PM 36.1013 -79.9411 214° Southwest  Level Estimated
Sun 11:40:00 PM 36.1013 -79.9411 214° Southwest  Level Estimated
Sun 11:41:00 PM 36.1013 -79.9411 214° Southwest  Level Estimated
Sun 11:42:00 PM 36.1013 -79.9411 214° Southwest  Level Estimated
Sun 11:43:00 PM 36.1013 -79.9411 214° Southwest  Level Estimated
Sun 11:44:00 PM 36.1013 -79.9411 214° Southwest  Level Estimated
Sun 11:45:00 PM 36.1013 -79.9411 214° Southwest  Level Estimated
Sun 11:46:00 PM 36.1013 -79.9411 214° Southwest  Level Estimated
Sun 11:47:00 PM 36.1013 -79.9411 214° Southwest  Level Estimated
Sun 11:48:00 PM 36.1013 -79.9411 214° Southwest  Level Estimated
Sun 11:49:00 PM 36.1013 -79.9411 214° Southwest  Level Estimated
Sun 11:50:00 PM 36.1013 -79.9411 214° Southwest  Level Estimated
Sun 11:51:00 PM 36.1013 -79.9411 214° Southwest  Level Estimated
Sun 11:52:00 PM 36.1013 -79.9411 214° Southwest  Level Estimated
Sun 11:53:00 PM 36.1013 -79.9411 214° Southwest  Level Estimated
Sun 11:54:00 PM 36.1013 -79.9411 214° Southwest  Level Estimated
Sun 11:55:00 PM 36.1013 -79.9411 214° Southwest  Level Estimated
Sun 11:56:00 PM 36.1013 -79.9411 214° Southwest  Level Estimated

Login

Don't have an account? Register now (free) for customized features, flight alerts, and more!